createdAt,value
2022-08-03T00:00:26.698Z,3.00
2022-08-03T00:02:53.991Z,2.72
2022-08-03T00:05:21.089Z,2.83
2022-08-03T00:07:48.499Z,3.05
2022-08-03T00:10:16.963Z,2.83
2022-08-03T00:12:43.794Z,3.15
2022-08-03T00:15:15.221Z,3.40
2022-08-03T00:17:52.039Z,2.83
2022-08-03T00:20:21.533Z,2.67
2022-08-03T00:22:48.716Z,3.13
2022-08-03T00:25:15.756Z,3.10
2022-08-03T00:27:42.463Z,2.70
2022-08-03T00:30:09.898Z,3.58
2022-08-03T00:32:36.709Z,2.80
2022-08-03T00:35:09.165Z,2.90
2022-08-03T00:37:41.641Z,3.00
2022-08-03T00:40:13.781Z,3.20
2022-08-03T00:42:50.749Z,2.88
2022-08-03T00:45:18.719Z,3.00
2022-08-03T00:47:45.784Z,3.35
2022-08-03T00:50:14.614Z,3.10
2022-08-03T00:52:41.820Z,2.80
2022-08-03T00:55:09.900Z,2.63
2022-08-03T00:57:37.458Z,2.70
2022-08-03T01:00:07.175Z,3.05
2022-08-03T01:02:34.098Z,2.58
2022-08-03T01:05:00.927Z,3.10
2022-08-03T01:07:49.334Z,2.70
2022-08-03T01:10:28.724Z,2.90
2022-08-03T01:14:03.611Z,2.65
2022-08-03T01:16:08.696Z,2.45
2022-08-03T01:18:52.909Z,2.70
2022-08-03T01:22:06.627Z,2.70
2022-08-03T01:25:14.047Z,3.03
2022-08-03T01:27:43.454Z,2.92
2022-08-03T01:30:12.599Z,2.90
2022-08-03T01:32:58.121Z,2.78
2022-08-03T01:35:42.425Z,2.72
2022-08-03T01:38:15.902Z,2.97
2022-08-03T01:40:45.044Z,3.05
2022-08-03T01:44:27.652Z,2.80
2022-08-03T01:46:03.955Z,2.90
2022-08-03T01:48:32.060Z,2.50
2022-08-03T01:51:00.269Z,2.72
2022-08-03T01:53:28.809Z,2.67
2022-08-03T01:55:57.582Z,2.60
2022-08-03T01:58:25.925Z,2.85
2022-08-03T02:00:54.049Z,2.55
2022-08-03T02:03:22.915Z,2.90
2022-08-03T02:06:01.252Z,2.72
2022-08-03T02:08:39.729Z,2.70
2022-08-03T02:11:07.285Z,2.40
2022-08-03T02:13:35.533Z,3.08
2022-08-03T02:16:05.746Z,2.90
2022-08-03T02:18:33.546Z,3.22
2022-08-03T02:21:11.105Z,3.25
2022-08-03T02:23:38.596Z,2.85
2022-08-03T02:26:09.456Z,2.80
2022-08-03T02:28:38.959Z,3.25
2022-08-03T02:31:14.052Z,3.28
2022-08-03T02:33:49.847Z,3.53
2022-08-03T02:36:24.446Z,3.13
2022-08-03T02:38:56.220Z,3.70
2022-08-03T02:41:28.332Z,3.50
2022-08-03T02:44:06.414Z,3.60
2022-08-03T02:46:38.723Z,3.78
2022-08-03T02:49:49.431Z,3.35
2022-08-03T02:51:55.401Z,3.80
2022-08-03T02:54:23.955Z,3.75
2022-08-03T02:56:52.654Z,3.67
2022-08-03T02:59:21.199Z,3.42
2022-08-03T03:01:49.236Z,3.42
2022-08-03T03:04:16.598Z,3.78
2022-08-03T03:06:45.269Z,3.92
2022-08-03T03:09:15.248Z,3.80
2022-08-03T03:11:44.235Z,4.00
2022-08-03T03:14:13.629Z,3.85
2022-08-03T03:16:42.935Z,3.78
2022-08-03T03:19:13.139Z,4.15
2022-08-03T03:21:40.739Z,4.00
2022-08-03T03:24:09.578Z,4.13
2022-08-03T03:26:40.697Z,4.30
2022-08-03T03:29:09.861Z,4.00
2022-08-03T03:31:37.423Z,3.83
2022-08-03T03:34:05.214Z,4.07
2022-08-03T03:36:33.649Z,4.25
2022-08-03T03:39:00.495Z,4.60
2022-08-03T03:41:43.514Z,4.03
2022-08-03T03:44:10.534Z,4.07
2022-08-03T03:46:38.927Z,4.35
2022-08-03T03:49:08.990Z,4.50
2022-08-03T03:51:35.836Z,4.35
2022-08-03T03:54:07.576Z,4.70
2022-08-03T03:56:34.547Z,4.28
2022-08-03T03:59:01.503Z,4.65
2022-08-03T04:01:28.920Z,4.80
2022-08-03T04:03:55.752Z,4.63
2022-08-03T04:06:40.993Z,4.80
2022-08-03T04:09:29.335Z,5.00
2022-08-03T04:12:01.151Z,4.53
2022-08-03T04:14:35.359Z,4.55
2022-08-03T04:17:05.053Z,4.43
2022-08-03T04:19:39.667Z,4.60
2022-08-03T04:22:09.929Z,4.55
2022-08-03T04:24:49.774Z,5.32
2022-08-03T04:27:21.521Z,4.53
2022-08-03T04:29:51.775Z,4.78
2022-08-03T04:32:20.633Z,4.47
2022-08-03T04:34:47.915Z,4.70
2022-08-03T04:37:41.866Z,5.20
2022-08-03T04:40:13.564Z,4.90
2022-08-03T04:42:43.089Z,4.78
2022-08-03T04:45:13.218Z,4.70
2022-08-03T04:47:40.386Z,5.00
2022-08-03T04:50:12.504Z,4.75
2022-08-03T04:52:40.342Z,4.80
2022-08-03T04:55:08.510Z,5.07
2022-08-03T04:57:35.445Z,5.22
2022-08-03T05:00:03.698Z,4.90
2022-08-03T05:02:32.194Z,5.00
2022-08-03T05:04:59.599Z,4.95
2022-08-03T05:07:34.087Z,5.47
2022-08-03T05:10:05.695Z,5.15
2022-08-03T05:12:42.575Z,4.95
2022-08-03T05:15:09.892Z,4.82
2022-08-03T05:17:37.017Z,4.90
2022-08-03T05:20:04.893Z,4.85
2022-08-03T05:22:31.897Z,4.63
2022-08-03T05:24:58.618Z,4.95
2022-08-03T05:27:25.342Z,4.95
2022-08-03T05:29:52.405Z,4.72
2022-08-03T05:32:19.403Z,4.70
2022-08-03T05:34:46.342Z,5.05
2022-08-03T05:37:13.252Z,4.88
2022-08-03T05:39:39.957Z,4.90
2022-08-03T05:42:06.682Z,5.60
2022-08-03T05:44:33.525Z,4.60
2022-08-03T05:47:00.378Z,4.78
2022-08-03T05:49:27.213Z,4.72
2022-08-03T05:52:00.021Z,5.03
2022-08-03T05:54:56.918Z,4.38
2022-08-03T05:59:54.764Z,3.78
2022-08-03T06:02:26.585Z,4.88
2022-08-03T06:04:53.701Z,4.80
2022-08-03T06:07:20.354Z,4.38
2022-08-03T06:10:35.007Z,4.63
2022-08-03T06:12:36.293Z,4.75
2022-08-03T06:15:04.504Z,4.18
2022-08-03T06:17:37.470Z,4.80
2022-08-03T06:20:05.961Z,4.32
2022-08-03T06:22:34.798Z,4.40
2022-08-03T06:25:04.827Z,4.68
2022-08-03T06:27:37.249Z,4.15
2022-08-03T06:30:05.415Z,4.45
2022-08-03T06:32:32.377Z,4.50
2022-08-03T06:34:59.826Z,4.10
2022-08-03T06:37:27.286Z,3.72
2022-08-03T06:39:54.354Z,4.20
2022-08-03T06:42:22.583Z,3.90
2022-08-03T06:44:50.111Z,4.32
2022-08-03T06:47:17.374Z,4.40
2022-08-03T06:49:44.333Z,4.07
2022-08-03T06:52:37.621Z,4.30
2022-08-03T06:55:06.537Z,3.78
2022-08-03T06:57:33.277Z,3.55
2022-08-03T07:00:09.050Z,3.42
2022-08-03T07:02:38.867Z,3.63
2022-08-03T07:05:06.906Z,3.58
2022-08-03T07:07:33.892Z,3.03
2022-08-03T07:10:00.828Z,3.97
2022-08-03T07:12:30.702Z,2.97
2022-08-03T07:15:01.223Z,3.10
2022-08-03T07:17:30.399Z,2.90
2022-08-03T07:19:57.770Z,2.65
2022-08-03T07:22:24.420Z,3.08
2022-08-03T07:24:51.140Z,2.60
2022-08-03T07:27:17.875Z,2.25
2022-08-03T07:29:44.658Z,2.60
2022-08-03T07:32:11.631Z,2.30
2022-08-03T07:34:38.614Z,2.22
2022-08-03T07:37:05.562Z,1.85
2022-08-03T07:39:32.419Z,2.28
2022-08-03T07:41:59.288Z,1.90
2022-08-03T07:44:26.051Z,2.08
2022-08-03T07:46:53.096Z,2.25
2022-08-03T07:49:20.129Z,1.58
2022-08-03T07:52:07.000Z,2.00
2022-08-03T07:54:33.869Z,1.90
2022-08-03T07:57:00.768Z,1.80
2022-08-03T07:59:27.641Z,1.67
2022-08-03T08:01:54.520Z,1.52
2022-08-03T08:04:21.511Z,1.80
2022-08-03T08:06:48.346Z,1.70
2022-08-03T08:09:17.239Z,1.50
2022-08-03T08:11:44.139Z,1.80
2022-08-03T08:14:10.857Z,1.70
2022-08-03T08:16:37.518Z,1.30
2022-08-03T08:19:04.776Z,1.75
2022-08-03T08:21:53.093Z,1.25
2022-08-03T08:24:20.800Z,1.52
2022-08-03T08:26:49.195Z,1.40
2022-08-03T08:29:16.057Z,1.80
2022-08-03T08:31:42.890Z,1.73
2022-08-03T08:34:09.692Z,1.60
2022-08-03T08:36:36.499Z,1.52
2022-08-03T08:39:03.551Z,1.30
2022-08-03T08:41:34.003Z,1.33
2022-08-03T08:44:04.094Z,1.50
2022-08-03T08:46:33.423Z,1.60
2022-08-03T08:49:00.914Z,1.70
2022-08-03T08:51:54.933Z,1.70
2022-08-03T08:54:25.862Z,1.55
2022-08-03T08:56:56.260Z,1.75
2022-08-03T08:59:24.577Z,1.50
2022-08-03T09:01:51.573Z,1.40
2022-08-03T09:04:18.989Z,1.83
2022-08-03T09:07:04.407Z,1.83
2022-08-03T09:10:10.452Z,1.70
2022-08-03T09:12:41.208Z,1.58
2022-08-03T09:15:22.807Z,1.48
2022-08-03T09:17:51.888Z,1.50
2022-08-03T09:20:20.259Z,1.73
2022-08-03T09:22:54.930Z,1.80
2022-08-03T09:25:29.218Z,1.42
2022-08-03T09:28:08.579Z,1.53
2022-08-03T09:30:37.007Z,1.73
2022-08-03T09:33:08.336Z,1.98
2022-08-03T09:35:54.120Z,1.73
2022-08-03T09:38:26.387Z,1.42
2022-08-03T09:40:59.856Z,1.50
2022-08-03T09:43:28.371Z,1.90
2022-08-03T09:46:05.649Z,2.00
2022-08-03T09:48:37.410Z,1.23
2022-08-03T09:51:13.593Z,1.80
2022-08-03T09:53:58.885Z,1.75
2022-08-03T09:56:47.559Z,1.42
2022-08-03T09:59:24.854Z,1.60
2022-08-03T10:01:54.006Z,1.52
2022-08-03T10:04:25.688Z,1.45
2022-08-03T10:07:09.507Z,1.40
2022-08-03T10:09:38.242Z,1.45
2022-08-03T10:12:13.144Z,1.42
2022-08-03T10:14:42.115Z,1.80
2022-08-03T10:17:10.018Z,1.70
2022-08-03T10:19:36.812Z,1.60
2022-08-03T10:22:37.338Z,1.55
2022-08-03T10:25:07.842Z,1.52
2022-08-03T10:27:39.940Z,1.70
2022-08-03T10:30:09.838Z,1.70
2022-08-03T10:32:42.208Z,1.65
2022-08-03T10:35:20.501Z,1.80
2022-08-03T10:38:29.321Z,1.35
2022-08-03T10:40:59.081Z,1.50
2022-08-03T10:43:36.471Z,1.40
2022-08-03T10:46:07.333Z,1.75
2022-08-03T10:48:36.096Z,1.50
2022-08-03T10:51:03.742Z,1.50
2022-08-03T10:53:40.536Z,1.50
2022-08-03T10:57:14.375Z,1.33
2022-08-03T10:59:47.499Z,1.15
2022-08-03T11:02:15.432Z,1.33
2022-08-03T11:04:43.001Z,1.17
2022-08-03T11:07:23.683Z,1.10
2022-08-03T11:09:53.291Z,1.17
2022-08-03T11:12:32.256Z,1.20
2022-08-03T11:15:02.143Z,1.40
2022-08-03T11:17:29.098Z,1.10
2022-08-03T11:19:56.668Z,1.20
2022-08-03T11:22:26.202Z,1.25
2022-08-03T11:24:57.447Z,1.35
2022-08-03T11:27:26.371Z,1.25
2022-08-03T11:30:13.950Z,1.20
2022-08-03T11:32:48.272Z,1.15
2022-08-03T11:35:35.549Z,1.30
2022-08-03T11:38:07.589Z,1.35
2022-08-03T11:40:46.046Z,1.80
2022-08-03T11:43:31.789Z,1.02
2022-08-03T11:46:07.375Z,1.40
2022-08-03T11:48:35.144Z,1.25
2022-08-03T11:51:03.124Z,1.20
2022-08-03T11:53:31.449Z,1.38
2022-08-03T11:56:02.979Z,1.40
2022-08-03T11:59:00.815Z,1.20
2022-08-03T12:01:22.728Z,1.63
2022-08-03T12:03:50.356Z,1.20
2022-08-03T12:06:18.951Z,1.20
2022-08-03T12:08:46.529Z,1.65
2022-08-03T12:11:15.435Z,1.75
2022-08-03T12:14:10.710Z,1.65
2022-08-03T12:16:38.386Z,1.75
2022-08-03T12:19:07.148Z,1.42
2022-08-03T12:21:34.083Z,1.50
2022-08-03T12:24:05.533Z,1.80
2022-08-03T12:26:58.643Z,1.75
2022-08-03T12:29:26.710Z,1.55
2022-08-03T12:31:53.774Z,1.60
2022-08-03T12:34:21.120Z,1.60
2022-08-03T12:36:53.643Z,1.70
2022-08-03T12:39:24.891Z,1.60
2022-08-03T12:41:56.000Z,1.40
2022-08-03T12:44:36.585Z,1.65
2022-08-03T12:47:04.892Z,1.92
2022-08-03T12:49:49.453Z,1.30
2022-08-03T12:52:18.068Z,1.75
2022-08-03T12:54:58.843Z,1.40
2022-08-03T12:57:40.047Z,1.30
2022-08-03T13:00:29.211Z,1.83
2022-08-03T13:03:38.975Z,1.73
2022-08-03T13:05:53.045Z,1.70
2022-08-03T13:08:24.907Z,1.70
2022-08-03T13:10:52.070Z,1.38
2022-08-03T13:13:20.902Z,1.92
2022-08-03T13:15:49.187Z,1.35
2022-08-03T13:18:17.361Z,1.30
2022-08-03T13:20:44.560Z,1.65
2022-08-03T13:23:16.189Z,1.42
2022-08-03T13:25:55.404Z,1.42
2022-08-03T13:28:23.628Z,1.20
2022-08-03T13:30:51.328Z,1.73
2022-08-03T13:33:18.619Z,1.40
2022-08-03T13:35:45.672Z,1.80
2022-08-03T13:38:12.638Z,1.77
2022-08-03T13:40:42.365Z,1.80
2022-08-03T13:43:09.571Z,1.80
2022-08-03T13:45:36.373Z,1.45
2022-08-03T13:48:03.144Z,1.42
2022-08-03T13:50:31.462Z,1.40
2022-08-03T13:52:58.270Z,1.60
2022-08-03T13:55:24.973Z,1.50
2022-08-03T13:58:04.604Z,1.55
2022-08-03T14:00:34.350Z,1.50
2022-08-03T14:03:13.332Z,1.50
2022-08-03T14:05:41.821Z,1.48
2022-08-03T14:08:08.740Z,1.33
2022-08-03T14:10:43.000Z,1.27
2022-08-03T14:13:12.777Z,1.75
2022-08-03T14:15:50.107Z,1.20
2022-08-03T14:18:28.804Z,1.10
2022-08-03T14:21:06.958Z,1.52
2022-08-03T14:23:35.812Z,1.10
2022-08-03T14:26:02.604Z,1.30
2022-08-03T14:28:29.923Z,1.25
2022-08-03T14:30:57.079Z,1.58
2022-08-03T14:33:24.249Z,1.00
2022-08-03T14:35:52.224Z,1.17
2022-08-03T14:38:19.254Z,1.23
2022-08-03T14:40:46.442Z,1.13
2022-08-03T14:43:14.147Z,1.00
2022-08-03T14:45:43.582Z,1.13
2022-08-03T14:50:28.787Z,1.25
2022-08-03T14:50:59.544Z,1.00
2022-08-03T14:53:26.392Z,1.10
2022-08-03T14:55:53.572Z,1.08
2022-08-03T14:58:25.461Z,1.10
2022-08-03T15:00:53.797Z,1.33
2022-08-03T15:03:23.962Z,0.95
2022-08-03T15:05:56.298Z,1.15
2022-08-03T15:08:24.600Z,1.20
2022-08-03T15:10:51.815Z,1.40
2022-08-03T15:13:19.849Z,1.10
2022-08-03T15:15:47.794Z,1.30
2022-08-03T15:18:14.579Z,0.98
2022-08-03T15:20:46.325Z,1.20
2022-08-03T15:23:17.807Z,1.20
2022-08-03T15:26:28.086Z,1.05
2022-08-03T15:28:33.654Z,1.48
2022-08-03T15:31:01.258Z,1.35
2022-08-03T15:33:28.730Z,1.30
2022-08-03T15:35:56.827Z,0.98
2022-08-03T15:38:25.925Z,1.17
2022-08-03T15:40:57.170Z,1.10
2022-08-03T15:43:24.340Z,1.05
2022-08-03T15:46:19.045Z,1.33
2022-08-03T15:48:39.048Z,1.13
2022-08-03T15:51:06.801Z,1.33
2022-08-03T15:53:33.949Z,1.15
2022-08-03T15:56:05.165Z,1.08
2022-08-03T15:59:10.192Z,0.80
2022-08-03T16:01:21.799Z,1.27
2022-08-03T16:03:49.015Z,0.80
2022-08-03T16:06:16.025Z,1.10
2022-08-03T16:08:43.207Z,1.20
2022-08-03T16:11:10.883Z,1.05
2022-08-03T16:14:13.257Z,1.27
2022-08-03T16:16:24.594Z,1.02
2022-08-03T16:18:51.560Z,0.98
2022-08-03T16:21:19.405Z,1.10
2022-08-03T16:23:48.857Z,1.15
2022-08-03T16:26:15.665Z,1.10
2022-08-03T16:28:42.605Z,0.95
2022-08-03T16:31:09.602Z,1.23
2022-08-03T16:33:36.596Z,1.10
2022-08-03T16:36:03.837Z,1.33
2022-08-03T16:38:31.383Z,1.23
2022-08-03T16:41:01.168Z,1.00
2022-08-03T16:43:28.489Z,1.10
2022-08-03T16:45:55.536Z,1.00
2022-08-03T16:48:23.662Z,0.88
2022-08-03T16:50:51.248Z,1.00
2022-08-03T16:53:33.502Z,1.40
2022-08-03T16:56:09.882Z,1.02
2022-08-03T16:58:42.450Z,1.30
2022-08-03T17:01:21.667Z,1.38
2022-08-03T17:04:01.890Z,1.13
2022-08-03T17:06:34.056Z,1.33
2022-08-03T17:09:02.140Z,1.60
2022-08-03T17:11:32.097Z,1.50
2022-08-03T17:14:00.163Z,1.50
2022-08-03T17:16:28.358Z,1.42
2022-08-03T17:19:03.992Z,1.45
2022-08-03T17:21:39.959Z,1.23
2022-08-03T17:24:19.752Z,1.10
2022-08-03T17:26:51.109Z,1.30
2022-08-03T17:29:23.090Z,1.30
2022-08-03T17:31:53.485Z,1.45
2022-08-03T17:34:21.684Z,1.60
2022-08-03T17:37:27.373Z,1.20
2022-08-03T17:39:58.380Z,1.27
2022-08-03T17:42:30.634Z,1.60
2022-08-03T17:45:01.936Z,1.77
2022-08-03T17:47:42.032Z,2.03
2022-08-03T17:50:23.517Z,2.00
2022-08-03T17:53:07.532Z,2.15
2022-08-03T17:55:55.169Z,1.30
2022-08-03T17:58:58.115Z,1.90
2022-08-03T18:05:02.349Z,1.92
2022-08-03T18:08:01.668Z,2.00
2022-08-03T18:10:36.088Z,1.45
2022-08-03T18:13:20.803Z,1.55
2022-08-03T18:15:58.191Z,1.70
2022-08-03T18:18:34.798Z,1.40
2022-08-03T18:23:52.320Z,1.20
2022-08-03T18:26:20.431Z,1.35
2022-08-03T18:28:52.820Z,1.50
2022-08-03T18:32:00.564Z,1.52
2022-08-03T18:34:19.088Z,1.40
2022-08-03T18:36:56.833Z,1.40
2022-08-03T18:39:23.990Z,1.20
2022-08-03T18:41:51.705Z,1.25
2022-08-03T18:44:37.661Z,1.20
2022-08-03T18:47:23.251Z,1.48
2022-08-03T18:50:19.326Z,1.60
2022-08-03T18:53:16.110Z,1.55
2022-08-03T18:56:03.470Z,1.30
2022-08-03T18:59:02.588Z,1.38
2022-08-03T19:01:57.694Z,1.42
2022-08-03T19:04:32.564Z,1.20
2022-08-03T19:07:08.908Z,1.60
2022-08-03T19:09:49.920Z,1.30
2022-08-03T19:12:32.300Z,1.60
2022-08-03T19:15:05.341Z,1.83
2022-08-03T19:17:36.191Z,1.50
2022-08-03T19:20:08.968Z,1.40
2022-08-03T19:22:45.709Z,1.10
2022-08-03T19:25:12.780Z,1.20
2022-08-03T19:27:40.844Z,1.25
2022-08-03T19:30:21.779Z,1.55
2022-08-03T19:32:54.184Z,1.63
2022-08-03T19:35:51.216Z,1.20
2022-08-03T19:38:10.698Z,1.30
2022-08-03T19:40:43.759Z,1.45
2022-08-03T19:43:22.685Z,1.40
2022-08-03T19:46:06.424Z,1.90
2022-08-03T19:48:36.844Z,1.90
2022-08-03T19:51:12.519Z,1.90
2022-08-03T19:53:45.187Z,1.98
2022-08-03T19:56:14.398Z,2.10
2022-08-03T19:58:44.335Z,2.28
2022-08-03T20:01:21.130Z,1.45
2022-08-03T20:03:50.118Z,1.60
2022-08-03T20:06:18.255Z,1.98
2022-08-03T20:08:51.601Z,1.85
2022-08-03T20:11:20.524Z,1.75
2022-08-03T20:13:57.821Z,1.63
2022-08-03T20:16:25.437Z,1.77
2022-08-03T20:18:52.491Z,1.50
2022-08-03T20:21:23.283Z,1.70
2022-08-03T20:24:03.142Z,1.50
2022-08-03T20:26:48.308Z,1.27
2022-08-03T20:30:05.274Z,1.83
2022-08-03T20:32:16.236Z,1.60
2022-08-03T20:34:43.290Z,2.10
2022-08-03T20:37:10.092Z,1.48
2022-08-03T20:39:39.170Z,1.50
2022-08-03T20:42:13.242Z,1.60
2022-08-03T20:44:58.918Z,1.80
2022-08-03T20:47:35.735Z,2.30
2022-08-03T20:50:04.478Z,1.55
2022-08-03T20:52:43.936Z,1.88
2022-08-03T20:55:17.040Z,1.70
2022-08-03T20:57:49.216Z,1.60
2022-08-03T21:00:21.844Z,1.42
2022-08-03T21:02:49.329Z,1.80
2022-08-03T21:05:17.674Z,2.83
2022-08-03T21:08:05.584Z,2.17
2022-08-03T21:10:37.888Z,1.92
2022-08-03T21:12:56.257Z,2.05
2022-08-03T21:13:04.350Z,1.80
2022-08-03T21:13:18.492Z,1.92
2022-08-03T21:16:02.884Z,2.00
2022-08-03T21:18:44.637Z,1.90
2022-08-03T21:21:14.387Z,2.10
2022-08-03T21:23:49.129Z,1.60
2022-08-03T21:28:46.768Z,1.70
2022-08-03T21:31:21.368Z,2.17
2022-08-03T21:33:59.797Z,2.03
2022-08-03T21:36:31.048Z,1.50
2022-08-03T21:39:00.391Z,1.67
2022-08-03T21:41:29.488Z,1.45
2022-08-03T21:43:56.648Z,2.13
2022-08-03T21:46:27.455Z,1.88
2022-08-03T21:50:04.748Z,1.63
2022-08-03T21:51:49.600Z,1.80
2022-08-03T21:54:19.788Z,1.65
2022-08-03T21:56:50.611Z,1.90
2022-08-03T21:59:20.391Z,2.33
2022-08-03T22:01:51.475Z,1.80
2022-08-03T22:04:50.756Z,1.60
2022-08-03T22:07:09.762Z,1.98
2022-08-03T22:09:37.001Z,1.77
2022-08-03T22:12:04.705Z,1.80
2022-08-03T22:14:34.205Z,2.10
2022-08-03T22:17:03.402Z,1.75
2022-08-03T22:19:33.230Z,1.90
2022-08-03T22:22:01.704Z,1.80
2022-08-03T22:24:32.067Z,2.38
2022-08-03T22:27:20.841Z,1.67
2022-08-03T22:29:49.973Z,1.90
2022-08-03T22:32:17.227Z,2.00
2022-08-03T22:34:46.496Z,2.30
2022-08-03T22:37:16.020Z,2.25
2022-08-03T22:39:44.117Z,1.70
2022-08-03T22:42:12.056Z,1.50
2022-08-03T22:44:39.741Z,2.00
2022-08-03T22:47:07.323Z,1.95
2022-08-03T22:49:36.998Z,2.17
2022-08-03T22:52:04.395Z,1.90
2022-08-03T22:54:32.970Z,1.83
2022-08-03T22:57:00.027Z,2.38
2022-08-03T22:59:39.817Z,1.88
2022-08-03T23:02:20.869Z,2.05
2022-08-03T23:04:57.017Z,2.63
2022-08-03T23:10:33.389Z,1.92
2022-08-03T23:13:01.199Z,2.30
2022-08-03T23:15:30.660Z,2.22
2022-08-03T23:17:58.829Z,2.05
2022-08-03T23:20:29.010Z,2.47
2022-08-03T23:22:57.761Z,1.98
2022-08-03T23:25:24.852Z,2.10
2022-08-03T23:28:05.146Z,1.95
2022-08-03T23:30:37.389Z,1.70
2022-08-03T23:33:04.609Z,2.25
2022-08-03T23:36:29.294Z,1.95
2022-08-03T23:38:37.341Z,1.80
2022-08-03T23:41:04.947Z,1.80
2022-08-03T23:43:52.143Z,2.15
2022-08-03T23:46:22.673Z,2.17
2022-08-03T23:48:51.142Z,2.00
2022-08-03T23:51:42.424Z,2.05
2022-08-03T23:54:26.782Z,1.60
2022-08-03T23:57:14.708Z,1.88
